Terminal Aerodrome Forecast
Issued by NWS Austin/San Antonio, TX

Home | Current Version | Previous Version | Text Only | Print | Product List | Glossary On
Versions: 1 2 3 4 5 6 7 8 9 10 11 12 13 14 15 16 17 18 19 20 21 22 23 24 25 26 27
923
FTUS44 KEWX 221414 AAC
TAFAUS
TAF AMD
KAUS 221414Z 2214/2318 03005KT 3SM BR OVC005
     FM221600 07005KT 5SM BR OVC009
     FM222000 13010KT P6SM OVC015
     FM230500 12004KT 6SM BR OVC007
     FM230700 14005KT P6SM OVC004=

USA.gov is the U.S. government's official web portal to all federal, state and local government web resources and services.